| Date | Time | Temp. (oF) | Dew Point (oF) | Rel. Hum. (%) | Press. (in.) | Wind Dir. | Wind Speed (mph) | Hourly Rainfall (in.) |
|
|---|---|---|---|---|---|---|---|---|---|
| 1 | 06/17 | 00:00 | 63 | 56 | 78 | 29.80 | S | 0 | 0.00 |
| 2 | 06/16 | 23:00 | 64 | 55 | 74 | 29.81 | SE | 0 | 0.00 |
| 3 | 06/16 | 22:00 | 65 | 53 | 67 | 29.81 | ESE | 0 | 0.00 |
| 4 | 06/16 | 21:00 | 67 | 53 | 61 | 29.79 | SE | 0 | 0.00 |
| 5 | 06/16 | 20:00 | 71 | 54 | 56 | 29.80 | NNE | 5 | 0.00 |
| 6 | 06/16 | 19:00 | 73 | 58 | 61 | 29.78 | W | 5 | 0.00 |
| 7 | 06/16 | 18:00 | 75 | 59 | 58 | 29.74 | SW | 8 | 0.00 |
| 8 | 06/16 | 17:00 | 77 | 60 | 58 | 29.72 | SSW | 7 | 0.00 |
| 9 | 06/16 | 16:00 | 81 | 62 | 54 | 29.70 | SSW | 6 | 0.00 |
| 10 | 06/16 | 15:00 | 82 | 60 | 49 | 29.73 | WSW | 5 | 0.00 |
| 11 | 06/16 | 14:00 | 85 | 60 | 44 | 29.74 | SW | 7 | 0.00 |
| 12 | 06/16 | 13:00 | 84 | 62 | 48 | 29.77 | SSW | 8 | 0.00 |
| 13 | 06/16 | 12:00 | 83 | 61 | 49 | 29.79 | WSW | 6 | 0.00 |
| 14 | 06/16 | 11:00 | 81 | 60 | 50 | 29.80 | S | 9 | 0.00 |
| 15 | 06/16 | 10:00 | 76 | 63 | 66 | 29.81 | SW | 5 | 0.00 |
| 16 | 06/16 | 09:00 | 75 | 65 | 73 | 29.81 | S | 4 | 0.00 |
| 17 | 06/16 | 08:00 | 69 | 62 | 80 | 29.80 | NE | 2 | 0.00 |
| 18 | 06/16 | 07:00 | 64 | 63 | 97 | 29.79 | ENE | 3 | 0.00 |
| 19 | 06/16 | 06:00 | 62 | 60 | 96 | 29.79 | NNE | 0 | 0.00 |
| 20 | 06/16 | 05:00 | 62 | 60 | 96 | 29.79 | WSW | 0 | 0.00 |
| 21 | 06/16 | 04:00 | 63 | 60 | 93 | 29.80 | WSW | 0 | 0.00 |
| 22 | 06/16 | 03:00 | 64 | 61 | 90 | 29.81 | WSW | 0 | 0.00 |
| 23 | 06/16 | 02:00 | 67 | 61 | 84 | 29.82 | SW | 1 | 0.00 |
| 24 | 06/16 | 01:00 | 68 | 62 | 82 | 29.83 | SSW | 1 | 0.00 |